Time;durP1;ratioP1;P1;durP2;ratioP2;P2;SDS_P1;SDS_P2;PMS_P1;PMS_P2;Temp;Humidity;BMP_temperature;BMP_pressure;BME280_temperature;BME280_humidity;BME280_pressure;Samples;Min_cycle;Max_cycle;Signal;HPM_P1;HPM_P2
2023/03/19 00:00:29;;;;;;;4.93;4.63;;;;;;;10.32;100.00;100688.72;6001114;23;20062;-74
2023/03/19 00:03:17;;;;;;;5.45;5.10;;;;;;;9.41;100.00;100534.28;5978183;23;20042;-74
2023/03/19 00:06:24;;;;;;;;;;;;;;;;;;;;;
2023/03/19 00:09:46;;;;;;;;;;;;;;;;;;;;;
2023/03/19 00:12:33;;;;;;;5.35;4.95;;;;;;;10.12;100.00;100683.56;6011383;23;20442;-74
2023/03/19 00:15:22;;;;;;;5.07;4.68;;;;;;;9.62;100.00;100621.41;5996255;23;20151;-74
2023/03/19 00:18:17;;;;;;;5.20;4.90;;;;;;;9.71;100.00;100653.25;6006917;23;20141;-72
2023/03/19 00:21:55;;;;;;;7.40;5.07;;;;;;;9.74;100.00;100681.09;5991652;23;20029;-74
2023/03/19 00:24:29;;;;;;;4.75;4.50;;;;;;;9.03;100.00;100589.38;5982463;23;20240;-74
2023/03/19 00:27:40;;;;;;;5.22;4.93;;;;;;;9.51;100.00;100677.81;5990180;23;20027;-74
2023/03/19 00:30:24;;;;;;;5.70;5.22;;;;;;;9.43;100.00;100687.81;5897873;23;20036;-74
2023/03/19 00:32:55;;;;;;;4.80;4.50;;;;;;;9.33;100.00;100695.25;5964687;23;20112;-73
2023/03/19 00:35:47;;;;;;;4.93;4.63;;;;;;;9.25;100.00;100702.63;6010758;23;21669;-74
2023/03/19 00:38:31;;;;;;;8.32;4.68;;;;;;;9.18;100.00;100693.34;6012422;23;20027;-74
2023/03/19 00:41:27;;;;;;;;;;;;;;;;;;;;;
2023/03/19 00:44:32;;;;;;;4.93;4.63;;;;;;;9.11;100.00;100695.41;6014236;23;20060;-74
2023/03/19 00:47:27;;;;;;;4.65;4.43;;;;;;;8.22;100.00;100546.81;5977016;23;20090;-75
2023/03/19 00:50:23;;;;;;;5.18;4.88;;;;;;;9.03;100.00;100696.69;6029298;23;20019;-75
2023/03/19 00:52:55;;;;;;;4.50;4.30;;;;;;;8.71;100.00;100647.50;5966454;23;20054;-75
2023/03/19 00:55:49;;;;;;;4.55;4.25;;;;;;;8.98;100.00;100692.50;6032665;23;20011;-75
2023/03/19 00:58:28;;;;;;;6.15;5.72;;;;;;;8.95;100.00;100692.63;5940299;23;20027;-75
2023/03/19 01:01:13;;;;;;;4.35;4.15;;;;;;;8.60;100.00;100644.53;6003840;23;20031;-74
2023/03/19 01:04:13;;;;;;;6.40;4.32;;;;;;;6.58;100.00;100307.63;6002509;23;20553;-75
2023/03/19 01:07:06;;;;;;;5.15;4.80;;;;;;;8.93;100.00;100701.50;5942082;24;20803;-74
2023/03/19 01:10:02;;;;;;;4.82;4.40;;;;;;;8.57;100.00;100635.03;5941177;24;20028;-75
2023/03/19 01:12:59;;;;;;;4.60;4.30;;;;;;;7.63;100.00;100478.00;5916613;24;20031;-76
2023/03/19 01:15:46;;;;;;;5.03;4.72;;;;;;;8.39;100.00;100599.22;5969416;23;20397;-74
2023/03/19 01:19:09;;;;;;;4.95;4.60;;;;;;;8.95;100.00;100687.41;5916730;24;20008;-75
2023/03/19 01:22:36;;;;;;;4.30;4.10;;;;;;;6.92;100.00;100351.38;5896440;24;20085;-74
2023/03/19 01:25:32;;;;;;;5.00;4.80;;;;;;;8.90;100.00;100678.06;5878164;24;20106;-74
2023/03/19 01:28:21;;;;;;;4.65;4.35;;;;;;;8.55;100.00;100634.25;5918681;24;20052;-74
2023/03/19 01:31:13;;;;;;;4.55;4.30;;;;;;;8.83;100.00;100687.97;5918228;24;20089;-75
2023/03/19 01:34:06;;;;;;;7.07;4.13;;;;;;;7.89;100.00;100540.41;5902919;24;20101;-74
2023/03/19 01:37:39;;;;;;;4.75;4.45;;;;;;;8.78;100.00;100684.72;5920246;23;20063;-75
2023/03/19 01:40:24;;;;;;;4.43;4.20;;;;;;;8.75;100.00;100683.06;5891407;24;20024;-74
2023/03/19 01:43:46;;;;;;;5.05;4.75;;;;;;;8.69;100.00;100675.50;5913859;24;20012;-75
2023/03/19 01:49:09;;;;;;;5.05;4.75;;;;;;;8.09;100.00;100610.09;5885996;24;20080;-76
2023/03/19 01:52:09;;;;;;;5.00;4.70;;;;;;;8.69;100.00;100672.88;5872562;24;20559;-75
2023/03/19 01:55:02;;;;;;;5.40;4.90;;;;;;;8.69;100.00;100675.50;5892484;24;20032;-75
2023/03/19 01:58:10;;;;;;;5.68;5.28;;;;;;;8.72;100.00;100680.59;5983865;23;20663;-74
2023/03/19 02:00:38;;;;;;;5.50;5.00;;;;;;;7.82;100.00;100528.53;6006258;23;20039;-74
2023/03/19 02:03:20;;;;;;;4.68;4.47;;;;;;;8.79;100.00;100676.78;5977130;23;20027;-73
2023/03/19 02:06:19;;;;;;;4.40;4.20;;;;;;;8.83;100.00;100672.25;5995238;23;20077;-75
2023/03/19 02:09:09;;;;;;;4.60;4.28;;;;;;;8.07;100.00;100537.91;5969519;23;20027;-75
2023/03/19 02:11:48;;;;;;;4.30;4.10;;;;;;;8.96;100.00;100678.66;6004671;23;20395;-75
2023/03/19 02:14:36;;;;;;;4.72;4.43;;;;;;;9.03;100.00;100673.97;5978013;23;20026;-74
2023/03/19 02:17:31;;;;;;;5.22;4.82;;;;;;;8.94;100.00;100683.09;6004595;23;20095;-74
2023/03/19 02:20:25;;;;;;;5.10;4.70;;;;;;;8.96;100.00;100644.63;5989907;23;20031;-74
2023/03/19 02:23:33;;;;;;;4.68;4.38;;;;;;;9.25;100.00;100678.22;5983617;23;20034;-75
2023/03/19 02:26:36;;;;;;;;;;;;;;;;;;;;;
2023/03/19 02:29:10;;;;;;;4.93;4.63;;;;;;;9.34;100.00;100677.75;6003571;23;20482;-74
2023/03/19 02:31:51;;;;;;;6.22;4.82;;;;;;;9.17;100.00;100634.91;6006980;23;20022;-75
2023/03/19 02:34:39;;;;;;;8.48;5.03;;;;;;;9.02;100.00;100613.84;6004337;23;20426;-75
2023/03/19 02:37:13;;;;;;;4.72;4.53;;;;;;;9.42;100.00;100670.41;6027647;23;20029;-75
2023/03/19 02:40:10;;;;;;;4.80;4.47;;;;;;;9.43;100.00;100666.03;6006720;23;20035;-75
2023/03/19 02:42:55;;;;;;;5.10;4.80;;;;;;;9.45;100.00;100667.63;6015203;23;20027;-75
2023/03/19 02:45:31;;;;;;;5.25;4.85;;;;;;;9.41;100.00;100657.38;6008378;23;20015;-76
2023/03/19 02:48:03;;;;;;;7.25;4.18;;;;;;;9.49;100.00;100666.56;5985481;23;20031;-75
2023/03/19 02:50:46;;;;;;;4.35;4.13;;;;;;;9.49;100.00;100663.94;6009287;23;20035;-75
2023/03/19 02:53:27;;;;;;;;;;;;;;;;;;;;;
2023/03/19 02:55:58;;;;;;;4.70;4.50;;;;;;;9.51;100.00;100669.13;5978362;23;20019;-76
2023/03/19 02:58:35;;;;;;;6.28;4.43;;;;;;;9.53;100.00;100673.34;6004605;23;20027;-76
2023/03/19 03:01:20;;;;;;;5.03;4.70;;;;;;;9.55;100.00;100687.22;5981504;23;20011;-75
2023/03/19 03:04:03;;;;;;;4.60;4.40;;;;;;;9.55;100.00;100674.13;6003391;23;20418;-76
2023/03/19 03:06:52;;;;;;;4.85;4.55;;;;;;;8.19;100.00;100451.94;5977975;23;20331;-75
2023/03/19 03:09:26;;;;;;;5.25;4.80;;;;;;;9.17;100.00;100606.09;6030508;23;20283;-76
2023/03/19 03:11:56;;;;;;;4.72;4.43;;;;;;;9.30;100.00;100647.41;5991884;23;20085;-75
2023/03/19 03:14:43;;;;;;;6.03;5.45;;;;;;;9.18;100.00;100605.19;6022651;23;20261;-74
2023/03/19 03:17:58;;;;;;;;;;;;;;;;;;;;;
2023/03/19 03:20:28;;;;;;;5.28;4.85;;;;;;;9.57;100.00;100664.41;6036497;23;20034;-75
2023/03/19 03:22:59;;;;;;;5.75;4.93;;;;;;;9.56;100.00;100673.22;5979037;23;20518;-74
2023/03/19 03:25:56;;;;;;;4.68;4.47;;;;;;;9.56;100.00;100677.59;5980953;23;20605;-73
2023/03/19 03:28:24;;;;;;;5.22;4.82;;;;;;;8.15;100.00;100468.69;6014911;23;20027;-74
2023/03/19 03:31:51;;;;;;;4.80;4.50;;;;;;;9.48;100.00;100680.59;5992760;23;20036;-75
2023/03/19 03:34:04;;;;;;;4.97;4.60;;;;;;;8.94;100.00;100603.72;5850965;23;20507;-75
2023/03/19 03:36:34;;;;;;;4.55;4.25;;;;;;;9.33;100.00;100671.69;6014646;23;20067;-72
2023/03/19 03:39:06;;;;;;;4.88;4.47;;;;;;;9.39;100.00;100697.59;6006169;23;20310;-74
2023/03/19 03:42:06;;;;;;;5.15;4.80;;;;;;;8.48;100.00;100557.00;6001840;23;20034;-73
2023/03/19 03:44:50;;;;;;;4.43;4.22;;;;;;;9.33;100.00;100692.63;6002721;23;20106;-74
2023/03/19 03:47:49;;;;;;;;;;;;;;;;;;;;;
2023/03/19 03:50:20;;;;;;;4.70;4.40;;;;;;;9.28;100.00;100704.25;6031895;23;20027;-74
2023/03/19 03:53:21;;;;;;;4.63;4.20;;;;;;;9.30;100.00;100705.91;5972818;23;20027;-76
2023/03/19 03:56:01;;;;;;;;;;;;;;;;;;;;;
2023/03/19 03:58:58;;;;;;;4.47;4.20;;;;;;;8.75;100.00;100632.50;5975459;23;20018;-74
2023/03/19 04:02:03;;;;;;;4.53;4.10;;;;;;;9.36;100.00;100744.00;5863077;24;20117;-75
2023/03/19 04:04:39;;;;;;;5.13;4.72;;;;;;;8.28;100.00;100530.84;5871117;24;20029;-74
2023/03/19 04:11:19;;;;;;;;;;;;;;;;;;;;;
2023/03/19 04:14:19;;;;;;;4.40;4.10;;;;;;;9.31;100.00;100704.94;5893103;24;20496;-74
2023/03/19 04:20:28;;;;;;;8.60;4.35;;;;;;;8.74;100.00;100636.91;5958032;23;20067;-74
2023/03/19 04:22:55;;;;;;;4.35;4.15;;;;;;;8.67;100.00;100626.78;6004840;23;20019;-73
2023/03/19 04:25:40;;;;;;;4.63;4.43;;;;;;;9.21;100.00;100723.78;6008538;23;20101;-74
2023/03/19 04:28:17;;;;;;;4.40;4.10;;;;;;;9.18;100.00;100717.78;6025219;23;20032;-74
2023/03/19 04:31:08;;;;;;;4.78;4.38;;;;;;;8.63;100.00;100633.91;6005559;23;20051;-74
2023/03/19 04:33:52;;;;;;;3.95;3.75;;;;;;;9.13;100.00;100711.91;5911333;24;20033;-75
2023/03/19 04:36:54;;;;;;;;;;;;;;;;;;;;;
2023/03/19 04:39:42;;;;;;;4.78;4.47;;;;;;;9.11;100.00;100733.84;5927279;24;20040;-74
2023/03/19 04:42:28;;;;;;;6.40;5.03;;;;;;;6.13;100.00;100238.25;5889563;24;20080;-74
2023/03/19 04:45:06;;;;;;;5.07;4.72;;;;;;;9.07;100.00;100727.03;5881250;24;20041;-73
2023/03/19 04:48:06;;;;;;;6.65;4.32;;;;;;;9.08;100.00;100729.59;5925578;24;20024;-74
2023/03/19 04:50:57;;;;;;;4.88;4.60;;;;;;;9.12;100.00;100735.53;5885251;24;20492;-74
2023/03/19 04:53:44;;;;;;;4.47;4.07;;;;;;;9.13;100.00;100735.47;5905252;24;20021;-74
2023/03/19 04:56:38;;;;;;;4.47;4.25;;;;;;;7.93;100.00;100536.75;5928052;24;20032;-72
2023/03/19 04:59:17;;;;;;;4.60;4.30;;;;;;;8.94;100.00;100700.56;5933764;24;20044;-74
2023/03/19 05:01:55;;;;;;;4.32;4.13;;;;;;;9.31;100.00;100748.63;5928925;24;20079;-73
2023/03/19 05:05:08;;;;;;;4.65;4.35;;;;;;;9.35;100.00;100742.34;5932586;24;20712;-74
2023/03/19 05:08:21;;;;;;;4.10;3.90;;;;;;;9.38;100.00;100750.03;5901239;24;20558;-75
2023/03/19 05:10:47;;;;;;;4.43;4.20;;;;;;;9.37;100.00;100749.19;5961017;23;20055;-74
2023/03/19 05:13:25;;;;;;;5.07;4.40;;;;;;;9.39;100.00;100754.38;5960224;23;20091;-75
2023/03/19 05:15:54;;;;;;;6.45;4.93;;;;;;;9.41;100.00;100756.91;6007886;23;20067;-74
2023/03/19 05:18:25;;;;;;;4.95;4.50;;;;;;;9.40;100.00;100766.53;5977066;23;20227;-74
2023/03/19 05:20:54;;;;;;;4.90;4.60;;;;;;;9.39;100.00;100757.81;6000305;23;20051;-74
2023/03/19 05:23:32;;;;;;;7.95;4.75;;;;;;;8.96;100.00;100703.94;6009745;23;21212;-73
2023/03/19 05:26:11;;;;;;;4.30;4.10;;;;;;;9.35;100.00;100747.56;5983513;23;20035;-74
2023/03/19 05:28:58;;;;;;;4.47;4.20;;;;;;;9.32;100.00;100750.31;6011787;23;20521;-75
2023/03/19 05:31:53;;;;;;;4.57;4.28;;;;;;;8.88;100.00;100677.28;5970008;23;20026;-75
2023/03/19 05:34:23;;;;;;;5.00;4.63;;;;;;;9.23;100.00;100745.53;6004726;23;22529;-73
2023/03/19 05:37:04;;;;;;;5.07;4.78;;;;;;;9.17;100.00;100744.03;5987660;23;20042;-73
2023/03/19 05:39:32;;;;;;;4.68;4.47;;;;;;;9.11;100.00;100754.78;6006592;23;20034;-74
2023/03/19 05:42:01;;;;;;;4.82;4.60;;;;;;;8.70;100.00;100682.44;6022715;23;20015;-74
2023/03/19 05:44:27;;;;;;;4.70;4.50;;;;;;;8.42;100.00;100659.28;5998750;23;20031;-74
2023/03/19 05:46:57;;;;;;;4.80;4.40;;;;;;;9.12;100.00;100762.56;6003635;23;20078;-74
2023/03/19 05:49:24;;;;;;;4.78;4.47;;;;;;;9.11;100.00;100760.00;5999414;23;20115;-72
2023/03/19 05:51:51;;;;;;;16.52;4.88;;;;;;;8.46;100.00;100644.28;6025596;23;20504;-75
2023/03/19 05:54:20;;;;;;;4.65;4.30;;;;;;;7.96;100.00;100560.16;5976597;23;20097;-73
2023/03/19 05:56:47;;;;;;;5.10;4.70;;;;;;;9.06;100.00;100746.28;5997484;23;20482;-72
2023/03/19 05:59:14;;;;;;;4.35;3.90;;;;;;;8.93;100.00;100717.19;6002410;23;21709;-73
2023/03/19 06:01:41;;;;;;;4.30;4.10;;;;;;;9.35;100.00;100784.25;6015800;23;20107;-72
2023/03/19 06:04:07;;;;;;;4.40;4.20;;;;;;;9.38;100.00;100790.19;5998867;23;20185;-71
2023/03/19 06:06:35;;;;;;;5.18;4.68;;;;;;;9.50;100.00;100785.28;6026814;23;20041;-72
2023/03/19 06:09:07;;;;;;;4.53;4.28;;;;;;;9.35;100.00;100758.06;5975632;23;20081;-71
2023/03/19 06:11:34;;;;;;;4.32;4.13;;;;;;;9.54;100.00;100786.84;5981857;23;20038;-72
2023/03/19 06:14:00;;;;;;;4.53;4.32;;;;;;;9.56;100.00;100780.63;5997413;23;20027;-71
2023/03/19 06:16:27;;;;;;;5.85;4.35;;;;;;;9.42;100.00;100759.47;6027242;23;20022;-73
2023/03/19 06:18:56;;;;;;;5.50;4.43;;;;;;;9.57;100.00;100782.31;5995818;23;20015;-71
2023/03/19 06:21:28;;;;;;;4.93;4.25;;;;;;;9.75;100.00;100805.97;5999914;23;20031;-71
2023/03/19 06:23:56;;;;;;;4.30;4.10;;;;;;;9.78;100.00;100803.19;6024044;23;20050;-72
2023/03/19 06:26:23;;;;;;;4.03;3.83;;;;;;;9.82;100.00;100809.16;5995099;23;20610;-71
2023/03/19 06:28:55;;;;;;;4.55;4.35;;;;;;;9.89;100.00;100815.81;6024789;23;20835;-70
2023/03/19 06:31:24;;;;;;;4.75;4.50;;;;;;;9.54;100.00;100752.78;5998776;23;20054;-71
2023/03/19 06:33:51;;;;;;;4.60;4.35;;;;;;;9.96;100.00;100811.97;6001384;23;20031;-72
2023/03/19 06:36:18;;;;;;;4.65;4.30;;;;;;;9.98;100.00;100810.97;6001703;23;20027;-72
2023/03/19 06:38:44;;;;;;;4.60;4.32;;;;;;;9.76;100.00;100784.94;5997594;23;20035;-71
2023/03/19 06:41:23;;;;;;;4.93;4.53;;;;;;;10.08;100.00;100813.13;6001845;23;20069;-72
2023/03/19 06:43:50;;;;;;;4.57;4.35;;;;;;;10.11;100.00;100818.25;5997498;23;20354;-71
2023/03/19 06:46:17;;;;;;;5.32;4.97;;;;;;;9.31;100.00;100684.00;6027338;23;20606;-68
2023/03/19 06:48:43;;;;;;;5.25;4.78;;;;;;;9.85;100.00;100778.41;5971634;23;20038;-72
2023/03/19 06:51:10;;;;;;;4.68;4.40;;;;;;;10.21;100.00;100819.50;6022161;23;20046;-73
2023/03/19 06:53:37;;;;;;;4.72;4.43;;;;;;;9.79;100.00;100736.75;5997737;23;20128;-72
2023/03/19 06:56:04;;;;;;;4.80;4.50;;;;;;;10.28;100.00;100817.41;6020868;23;20031;-72
2023/03/19 06:58:35;;;;;;;5.10;4.80;;;;;;;10.06;100.00;100766.00;6003501;23;20103;-73
2023/03/19 07:01:02;;;;;;;5.00;4.60;;;;;;;10.54;100.00;100813.53;5986195;23;20062;-71
2023/03/19 07:03:29;;;;;;;7.25;4.63;;;;;;;10.69;100.00;100817.19;6027148;23;20108;-71
2023/03/19 07:05:56;;;;;;;4.82;4.53;;;;;;;10.58;100.00;100792.34;6001641;23;20030;-71
2023/03/19 07:08:22;;;;;;;4.65;4.40;;;;;;;10.90;100.00;100830.97;6030920;23;20658;-71
2023/03/19 07:10:50;;;;;;;4.50;4.25;;;;;;;10.51;100.00;100767.31;6002222;23;20039;-72
2023/03/19 07:13:19;;;;;;;4.97;4.68;;;;;;;10.86;100.00;100822.41;5994181;23;20081;-71
2023/03/19 07:15:46;;;;;;;5.20;4.68;;;;;;;10.33;100.00;100729.75;5998473;23;20040;-72
2023/03/19 07:18:13;;;;;;;5.93;5.63;;;;;;;9.54;100.00;100599.09;5973280;23;20034;-72
2023/03/19 07:20:39;;;;;;;4.68;4.47;;;;;;;10.93;100.00;100818.53;5994075;23;20527;-73
2023/03/19 07:23:06;;;;;;;5.40;5.07;;;;;;;10.96;100.00;100825.41;6000640;23;20023;-72
2023/03/19 07:25:35;;;;;;;5.40;4.90;;;;;;;10.71;100.00;100784.66;6004877;23;20049;-71
2023/03/19 07:28:02;;;;;;;4.82;4.50;;;;;;;11.09;100.00;100857.16;5997700;23;20251;-72
2023/03/19 07:30:29;;;;;;;4.78;4.47;;;;;;;11.10;100.00;100829.94;6023908;23;20051;-71
2023/03/19 07:32:56;;;;;;;4.18;3.97;;;;;;;10.35;100.00;100699.03;5996879;23;20015;-72
2023/03/19 07:35:23;;;;;;;4.88;4.57;;;;;;;11.10;100.00;100817.66;6025061;23;20086;-74
2023/03/19 07:37:50;;;;;;;4.22;4.03;;;;;;;11.21;100.00;100834.66;5998273;23;20026;-72
2023/03/19 07:40:17;;;;;;;4.40;4.20;;;;;;;9.90;100.00;100626.13;5997349;23;20035;-71
2023/03/19 07:42:44;;;;;;;5.55;5.15;;;;;;;11.22;100.00;100842.44;5998158;23;20529;-72
2023/03/19 07:45:11;;;;;;;5.75;5.15;;;;;;;11.24;100.00;100832.69;5993028;23;20538;-73
2023/03/19 07:47:38;;;;;;;4.50;4.30;;;;;;;11.29;100.00;100833.31;5996307;23;20044;-71
2023/03/19 07:50:06;;;;;;;4.63;4.43;;;;;;;11.35;100.00;100832.13;5999274;23;20095;-71
2023/03/19 07:52:32;;;;;;;5.03;4.72;;;;;;;11.27;100.00;100823.81;5999480;23;20336;-72
2023/03/19 07:55:02;;;;;;;5.25;4.93;;;;;;;10.68;100.00;100716.56;5996195;23;20058;-74
2023/03/19 07:57:31;;;;;;;4.65;4.45;;;;;;;11.14;100.00;100761.38;6021004;23;20146;-71
2023/03/19 07:59:58;;;;;;;4.82;4.50;;;;;;;11.66;100.00;100836.56;5973001;23;20099;-72
2023/03/19 08:02:25;;;;;;;5.55;4.50;;;;;;;11.36;100.00;100765.50;5997835;23;20097;-71
2023/03/19 08:04:51;;;;;;;5.20;4.90;;;;;;;11.95;100.00;100832.38;5994347;23;20031;-71
2023/03/19 08:07:19;;;;;;;5.10;4.80;;;;;;;11.80;100.00;100783.22;5999280;23;20034;-73
2023/03/19 08:09:48;;;;;;;7.20;5.57;;;;;;;12.03;99.49;100796.88;5997912;23;20033;-73
2023/03/19 08:12:15;;;;;;;4.68;4.38;;;;;;;12.28;98.64;100812.13;5998632;23;20011;-73
2023/03/19 08:14:41;;;;;;;5.38;5.07;;;;;;;12.36;96.94;100804.63;5999516;23;20499;-72
2023/03/19 08:17:08;;;;;;;5.22;4.93;;;;;;;12.56;96.80;100812.22;6005604;23;20050;-71
2023/03/19 08:19:35;;;;;;;5.00;4.60;;;;;;;12.78;95.54;100809.16;5971226;23;20222;-73
2023/03/19 08:22:01;;;;;;;5.00;4.70;;;;;;;12.94;93.74;100793.28;6023633;23;20094;-70
2023/03/19 08:24:28;;;;;;;5.30;4.90;;;;;;;13.33;92.00;100809.41;5991833;23;20035;-71
2023/03/19 08:26:57;;;;;;;5.82;5.43;;;;;;;13.55;89.61;100793.97;6021614;23;20255;-72
2023/03/19 08:29:30;;;;;;;5.13;4.82;;;;;;;13.44;87.51;100738.41;5999512;23;20065;-72
2023/03/19 08:31:59;;;;;;;5.22;4.82;;;;;;;13.94;86.49;100789.72;5982272;23;20038;-73
2023/03/19 08:34:26;;;;;;;5.07;4.78;;;;;;;13.65;84.76;100699.28;5997763;23;20058;-72
2023/03/19 08:36:55;;;;;;;5.07;4.78;;;;;;;14.40;83.20;100777.09;6006122;23;20031;-72
2023/03/19 08:39:22;;;;;;;4.88;4.57;;;;;;;14.66;81.68;100765.63;5996621;23;20106;-72
2023/03/19 08:41:49;;;;;;;5.70;5.30;;;;;;;14.63;78.54;100709.50;5982299;23;20023;-73
2023/03/19 08:44:15;;;;;;;5.30;5.00;;;;;;;14.52;78.29;100684.66;5993813;23;20015;-71
2023/03/19 08:46:42;;;;;;;5.55;5.25;;;;;;;14.75;78.44;100716.59;6021351;23;20089;-71
2023/03/19 08:49:11;;;;;;;5.00;4.80;;;;;;;14.93;78.34;100722.38;6001526;23;20061;-72
2023/03/19 08:51:39;;;;;;;5.95;5.65;;;;;;;14.15;77.54;100580.75;5998629;23;20019;-70
2023/03/19 08:54:05;;;;;;;5.70;5.30;;;;;;;14.92;75.80;100679.28;6022227;23;20039;-71
2023/03/19 08:56:32;;;;;;;5.85;5.45;;;;;;;14.89;76.47;100692.72;5999976;23;20087;-72
2023/03/19 08:58:59;;;;;;;5.32;4.93;;;;;;;15.03;77.12;100699.63;6021277;23;20015;-72
2023/03/19 09:01:25;;;;;;;5.40;5.10;;;;;;;14.84;76.21;100668.41;5994025;23;20020;-72
2023/03/19 09:03:52;;;;;;;5.53;5.03;;;;;;;14.74;76.87;100672.66;6022510;23;20030;-71
2023/03/19 09:06:19;;;;;;;5.25;5.05;;;;;;;14.95;77.14;100704.63;5996442;23;20426;-71
2023/03/19 09:08:45;;;;;;;5.60;5.22;;;;;;;14.90;77.29;100672.41;6000063;23;20035;-72
2023/03/19 09:11:13;;;;;;;6.32;5.78;;;;;;;15.00;76.07;100667.31;5997795;23;20008;-72
2023/03/19 09:13:39;;;;;;;5.53;5.22;;;;;;;15.09;75.21;100646.34;5997524;23;20031;-71
2023/03/19 09:16:06;;;;;;;5.38;5.07;;;;;;;14.86;74.50;100581.09;6002186;23;20043;-72
2023/03/19 09:18:33;;;;;;;5.40;5.10;;;;;;;14.90;73.75;100532.38;6025846;23;20041;-73
2023/03/19 09:21:00;;;;;;;6.07;5.45;;;;;;;15.98;72.09;100665.44;5995939;23;20031;-73
2023/03/19 09:23:28;;;;;;;5.45;5.15;;;;;;;15.93;71.48;100659.63;6002828;23;20027;-70
2023/03/19 09:25:55;;;;;;;5.95;5.40;;;;;;;15.81;70.66;100628.81;5994441;23;20031;-71
2023/03/19 09:28:22;;;;;;;5.80;5.20;;;;;;;15.77;70.82;100607.03;5997803;23;20163;-71
2023/03/19 09:30:50;;;;;;;5.43;5.13;;;;;;;16.48;70.25;100660.72;6024813;23;20038;-72
2023/03/19 09:33:20;;;;;;;5.93;5.53;;;;;;;16.13;69.47;100606.00;5976462;23;20026;-71
2023/03/19 09:35:52;;;;;;;6.00;5.60;;;;;;;16.73;69.13;100637.59;6019633;23;20253;-72
2023/03/19 09:38:21;;;;;;;5.50;5.10;;;;;;;16.34;67.38;100550.56;5999308;23;20102;-71
2023/03/19 09:40:58;;;;;;;5.70;5.40;;;;;;;16.50;67.82;100594.38;6023880;23;20036;-71
2023/03/19 09:44:03;;;;;;;5.53;5.22;;;;;;;17.04;67.57;100624.56;5996018;23;20069;-72
2023/03/19 09:46:42;;;;;;;5.93;5.60;;;;;;;16.57;64.05;100472.88;6016498;23;20029;-72
2023/03/19 09:49:25;;;;;;;5.55;5.25;;;;;;;16.66;64.41;100517.19;5996911;23;20432;-72
2023/03/19 09:52:13;;;;;;;6.25;5.88;;;;;;;16.67;65.02;100532.94;6019789;23;20395;-72
2023/03/19 09:54:51;;;;;;;7.35;5.45;;;;;;;16.21;64.82;100483.63;5996355;23;20090;-72
2023/03/19 09:57:20;;;;;;;6.18;5.60;;;;;;;15.95;66.67;100505.03;6023123;23;20090;-71
2023/03/19 09:59:47;;;;;;;5.72;5.43;;;;;;;15.32;67.89;100486.03;6003146;23;20042;-71
2023/03/19 10:02:35;;;;;;;5.50;5.20;;;;;;;15.77;69.07;100572.63;6028714;23;20041;-72
2023/03/19 10:05:05;;;;;;;5.32;5.03;;;;;;;14.77;68.43;100387.09;6007977;23;20305;-73
2023/03/19 10:07:57;;;;;;;5.63;5.32;;;;;;;15.61;68.57;100553.56;6010865;23;20109;-70
2023/03/19 10:10:32;;;;;;;6.97;5.55;;;;;;;15.06;70.76;100580.50;6007776;23;20034;-70
2023/03/19 10:13:26;;;;;;;5.47;5.18;;;;;;;15.18;72.58;100622.88;6032495;23;20027;-70
2023/03/19 10:15:54;;;;;;;5.50;5.20;;;;;;;15.19;72.96;100633.31;5998015;23;20471;-70
2023/03/19 10:18:28;;;;;;;5.20;4.90;;;;;;;14.91;73.07;100571.03;6021907;23;20033;-73
2023/03/19 10:21:01;;;;;;;5.78;5.38;;;;;;;15.44;72.46;100631.53;5992242;23;20094;-72
2023/03/19 10:23:49;;;;;;;5.40;5.10;;;;;;;15.46;70.83;100609.28;5993205;23;20491;-71
2023/03/19 10:26:19;;;;;;;5.15;4.85;;;;;;;15.50;69.64;100602.81;6022669;23;20015;-71
2023/03/19 10:29:11;;;;;;;5.53;5.20;;;;;;;15.60;70.11;100612.72;6004468;23;20458;-72
2023/03/19 10:31:55;;;;;;;5.32;5.03;;;;;;;14.50;69.96;100424.31;6006649;23;20031;-71
2023/03/19 10:34:33;;;;;;;5.30;5.00;;;;;;;15.29;69.88;100551.53;5999167;23;20291;-72
2023/03/19 10:37:21;;;;;;;5.10;4.70;;;;;;;15.75;70.54;100630.09;6001942;23;20023;-71
2023/03/19 10:39:49;;;;;;;5.60;5.30;;;;;;;15.65;69.93;100603.47;5993885;23;20055;-71
2023/03/19 10:42:40;;;;;;;5.75;5.38;;;;;;;15.54;71.08;100630.72;5999390;23;20089;-71
2023/03/19 10:45:36;;;;;;;5.47;5.18;;;;;;;15.47;71.97;100647.16;5983042;23;20025;-72
2023/03/19 10:48:10;;;;;;;5.60;5.22;;;;;;;15.03;73.19;100606.31;5996718;23;20084;-72
2023/03/19 10:50:41;;;;;;;;;;;;;;;14.99;73.96;100653.25;5996626;23;20034;-73
2023/03/19 10:53:13;;;;;;;5.85;5.55;;;;;;;14.88;75.06;100654.00;6020931;23;20239;-70
2023/03/19 10:55:52;;;;;;;6.20;5.65;;;;;;;14.36;75.28;100607.47;5966096;23;20043;-71
2023/03/19 10:58:24;;;;;;;5.20;4.90;;;;;;;14.81;77.50;100712.69;6004920;23;20023;-71
2023/03/19 11:01:10;;;;;;;5.50;5.10;;;;;;;14.69;77.70;100696.75;5997306;23;20058;-71
2023/03/19 11:03:51;;;;;;;5.55;5.15;;;;;;;14.87;77.74;100718.38;6018768;23;20092;-70
2023/03/19 11:06:30;;;;;;;5.25;4.95;;;;;;;14.97;77.57;100713.28;5996300;23;20438;-74
2023/03/19 11:09:00;;;;;;;5.80;5.35;;;;;;;15.12;77.35;100735.16;5995772;23;20754;-71
2023/03/19 11:11:41;;;;;;;5.50;5.20;;;;;;;15.30;76.83;100719.78;5968131;23;20015;-70
2023/03/19 11:14:17;;;;;;;5.40;5.10;;;;;;;15.88;75.51;100755.28;6010262;23;20054;-72
2023/03/19 11:17:05;;;;;;;7.47;5.68;;;;;;;16.10;73.66;100720.09;5996466;23;20098;-71
2023/03/19 11:19:40;;;;;;;5.00;4.70;;;;;;;16.13;72.03;100684.59;6001967;23;20046;-72
2023/03/19 11:22:06;;;;;;;5.65;5.35;;;;;;;15.99;69.00;100626.56;5992814;23;20287;-72
2023/03/19 11:24:40;;;;;;;5.22;4.82;;;;;;;15.65;69.98;100619.34;6020078;23;20102;-72
2023/03/19 11:27:08;;;;;;;5.25;4.95;;;;;;;15.58;72.79;100686.91;5993220;23;20461;-71
2023/03/19 11:29:41;;;;;;;6.05;5.60;;;;;;;15.60;75.28;100737.06;6019594;23;20065;-72
2023/03/19 11:32:54;;;;;;;5.35;5.05;;;;;;;14.37;76.14;100548.41;5964203;23;20055;-72
2023/03/19 11:35:27;;;;;;;6.25;5.80;;;;;;;15.41;81.08;100807.13;6013329;23;20589;-71
2023/03/19 11:38:11;;;;;;;5.55;5.25;;;;;;;15.46;83.21;100828.81;5995482;23;20410;-74
2023/03/19 11:40:44;;;;;;;4.97;4.78;;;;;;;15.62;84.58;100855.03;6024600;23;20022;-71
2023/03/19 11:43:21;;;;;;;5.72;5.32;;;;;;;15.30;86.15;100804.41;6003907;23;20434;-72
2023/03/19 11:46:17;;;;;;;5.47;5.18;;;;;;;15.78;87.51;100894.50;6008514;23;20025;-71
2023/03/19 11:49:14;;;;;;;5.38;5.07;;;;;;;14.77;89.59;100722.59;6000562;23;20467;-71
2023/03/19 11:52:03;;;;;;;5.40;5.10;;;;;;;15.14;85.15;100770.25;5990991;23;20088;-71
2023/03/19 11:54:54;;;;;;;4.93;4.68;;;;;;;15.29;85.61;100845.84;6028196;23;20469;-71
2023/03/19 11:57:35;;;;;;;5.47;5.07;;;;;;;15.39;91.47;100898.09;5973962;23;20027;-71
2023/03/19 12:00:30;;;;;;;6.30;4.95;;;;;;;15.55;93.21;100920.75;6023928;23;20066;-72
2023/03/19 12:03:18;;;;;;;5.38;5.03;;;;;;;15.53;92.08;100914.69;5972932;23;20019;-71
2023/03/19 12:05:59;;;;;;;5.28;4.88;;;;;;;15.68;87.48;100875.75;5999153;23;20054;-71
2023/03/19 12:08:48;;;;;;;5.25;4.95;;;;;;;15.85;87.30;100886.97;6001059;23;20096;-71
2023/03/19 12:11:24;;;;;;;5.28;5.07;;;;;;;16.15;84.28;100875.97;6000098;23;20474;-73
2023/03/19 12:14:06;;;;;;;4.90;4.70;;;;;;;15.88;78.42;100760.56;5998586;23;20340;-71
2023/03/19 12:16:51;;;;;;;5.75;5.43;;;;;;;15.92;80.61;100814.97;6023457;23;20380;-70
2023/03/19 12:19:45;;;;;;;5.97;5.60;;;;;;;13.83;83.03;100628.66;5994833;23;20164;-72
2023/03/19 12:22:36;;;;;;;6.10;5.60;;;;;;;14.79;87.28;100847.53;5985429;23;20446;-71
2023/03/19 12:25:15;;;;;;;6.22;5.82;;;;;;;14.56;89.15;100860.47;5966041;23;20968;-73
2023/03/19 12:27:55;;;;;;;5.65;5.32;;;;;;;14.18;92.78;100854.22;5973520;23;20027;-73
2023/03/19 12:30:36;;;;;;;6.00;5.43;;;;;;;13.56;93.32;100819.38;5993163;23;20035;-72
2023/03/19 12:33:34;;;;;;;5.43;5.13;;;;;;;13.86;99.48;100910.72;6000423;23;20297;-71
2023/03/19 12:36:03;;;;;;;6.20;5.72;;;;;;;14.13;98.75;100923.97;5993568;23;20049;-71
2023/03/19 12:38:40;;;;;;;5.60;5.20;;;;;;;13.98;97.46;100908.25;6022760;23;20061;-70
2023/03/19 12:41:16;;;;;;;5.38;5.07;;;;;;;13.45;98.21;100826.25;5995526;23;20031;-71
2023/03/19 12:43:58;;;;;;;6.05;5.10;;;;;;;13.48;97.52;100847.19;5994470;23;20086;-71